San Antonio, Texas
Traffic Map
Current Weather Conditions
San Antonio, Texas
Clear
Clear
81°
Feels Like: 85°
Wind Chill: 81° Ceiling: Unl
Heat Index: 85° Visibility: 10mi
Dew Point: 70° Wind: 14mph
Humidity: 67% Direction: 130° (SE)
Pressure: 29.95in Gusts: 0mph
Raw Report DataKSKF 310458Z AUTO 13012KT 10SM CLR 27/21 A2995 RMK AO2 SLP134 T02740209 $
Traffic Incident Summary
Active as of:
Severity:
Category:
InformationThere was an issue retrieving the traffic information for this location. Please try a different location or try again shortly.
Advertisements
Track Severe Weather on mobile